sensor_id;sensor_type;location;lat;lon;timestamp;P1;durP1;ratioP1;P2;durP2;ratioP2
20381;SDS011;10350;51.280;12.400;2023-03-01T00:02:01;25.83;;;13.02;;
20381;SDS011;10350;51.280;12.400;2023-03-01T00:04:27;26.48;;;13.43;;
20381;SDS011;10350;51.280;12.400;2023-03-01T00:06:53;26.88;;;12.13;;
20381;SDS011;10350;51.280;12.400;2023-03-01T00:09:19;27.92;;;13.50;;
20381;SDS011;10350;51.280;12.400;2023-03-01T00:11:45;30.02;;;13.65;;
20381;SDS011;10350;51.280;12.400;2023-03-01T00:14:11;24.45;;;11.65;;
20381;SDS011;10350;51.280;12.400;2023-03-01T00:16:41;26.08;;;12.15;;
20381;SDS011;10350;51.280;12.400;2023-03-01T00:19:08;26.48;;;13.13;;
20381;SDS011;10350;51.280;12.400;2023-03-01T00:24:01;19.13;;;10.77;;
20381;SDS011;10350;51.280;12.400;2023-03-01T00:26:27;27.83;;;12.38;;
20381;SDS011;10350;51.280;12.400;2023-03-01T00:28:53;24.58;;;11.65;;
20381;SDS011;10350;51.280;12.400;2023-03-01T00:31:22;21.48;;;11.00;;
20381;SDS011;10350;51.280;12.400;2023-03-01T00:36:15;27.38;;;11.48;;
20381;SDS011;10350;51.280;12.400;2023-03-01T00:38:42;32.67;;;11.90;;
20381;SDS011;10350;51.280;12.400;2023-03-01T00:41:10;23.60;;;11.18;;
20381;SDS011;10350;51.280;12.400;2023-03-01T00:43:36;22.85;;;12.27;;
20381;SDS011;10350;51.280;12.400;2023-03-01T00:46:07;20.33;;;10.75;;
20381;SDS011;10350;51.280;12.400;2023-03-01T00:48:33;24.40;;;12.07;;
20381;SDS011;10350;51.280;12.400;2023-03-01T00:53:31;27.27;;;12.23;;
20381;SDS011;10350;51.280;12.400;2023-03-01T00:55:57;23.42;;;11.75;;
20381;SDS011;10350;51.280;12.400;2023-03-01T00:58:23;21.92;;;12.13;;
20381;SDS011;10350;51.280;12.400;2023-03-01T01:00:49;22.75;;;12.15;;
20381;SDS011;10350;51.280;12.400;2023-03-01T01:03:17;26.23;;;11.68;;
20381;SDS011;10350;51.280;12.400;2023-03-01T01:05:43;23.13;;;10.73;;
20381;SDS011;10350;51.280;12.400;2023-03-01T01:08:09;19.50;;;10.85;;
20381;SDS011;10350;51.280;12.400;2023-03-01T01:10:35;24.27;;;11.52;;
20381;SDS011;10350;51.280;12.400;2023-03-01T01:13:01;24.42;;;11.30;;
20381;SDS011;10350;51.280;12.400;2023-03-01T01:15:27;23.80;;;11.52;;
20381;SDS011;10350;51.280;12.400;2023-03-01T01:17:52;20.63;;;10.35;;
20381;SDS011;10350;51.280;12.400;2023-03-01T01:20:19;20.60;;;10.68;;
20381;SDS011;10350;51.280;12.400;2023-03-01T01:22:45;20.92;;;10.88;;
20381;SDS011;10350;51.280;12.400;2023-03-01T01:25:11;22.50;;;10.88;;
20381;SDS011;10350;51.280;12.400;2023-03-01T01:27:37;23.60;;;11.65;;
20381;SDS011;10350;51.280;12.400;2023-03-01T01:30:03;23.08;;;10.50;;
20381;SDS011;10350;51.280;12.400;2023-03-01T01:32:30;18.88;;;10.43;;
20381;SDS011;10350;51.280;12.400;2023-03-01T01:34:56;22.23;;;10.82;;
20381;SDS011;10350;51.280;12.400;2023-03-01T01:37:21;21.60;;;11.25;;
20381;SDS011;10350;51.280;12.400;2023-03-01T01:39:47;20.30;;;10.60;;
20381;SDS011;10350;51.280;12.400;2023-03-01T01:42:17;16.83;;;9.95;;
20381;SDS011;10350;51.280;12.400;2023-03-01T01:44:47;18.73;;;9.20;;
20381;SDS011;10350;51.280;12.400;2023-03-01T01:47:14;20.63;;;10.52;;
20381;SDS011;10350;51.280;12.400;2023-03-01T01:50:03;20.38;;;10.32;;
20381;SDS011;10350;51.280;12.400;2023-03-01T01:52:33;20.70;;;10.77;;
20381;SDS011;10350;51.280;12.400;2023-03-01T01:55:02;16.98;;;10.32;;
20381;SDS011;10350;51.280;12.400;2023-03-01T01:57:32;19.65;;;10.30;;
20381;SDS011;10350;51.280;12.400;2023-03-01T02:00:03;19.08;;;10.35;;
20381;SDS011;10350;51.280;12.400;2023-03-01T02:02:29;24.83;;;11.23;;
20381;SDS011;10350;51.280;12.400;2023-03-01T02:05:58;24.15;;;10.20;;
20381;SDS011;10350;51.280;12.400;2023-03-01T02:07:51;21.25;;;10.43;;
20381;SDS011;10350;51.280;12.400;2023-03-01T02:10:18;19.67;;;9.90;;
20381;SDS011;10350;51.280;12.400;2023-03-01T02:12:44;17.55;;;9.63;;
20381;SDS011;10350;51.280;12.400;2023-03-01T02:15:10;21.77;;;10.20;;
20381;SDS011;10350;51.280;12.400;2023-03-01T02:17:36;21.00;;;10.13;;
20381;SDS011;10350;51.280;12.400;2023-03-01T02:20:15;18.67;;;9.63;;
20381;SDS011;10350;51.280;12.400;2023-03-01T02:22:44;21.05;;;10.02;;
20381;SDS011;10350;51.280;12.400;2023-03-01T02:30:12;25.13;;;10.20;;
20381;SDS011;10350;51.280;12.400;2023-03-01T02:32:39;22.45;;;10.82;;
20381;SDS011;10350;51.280;12.400;2023-03-01T02:35:06;18.20;;;9.95;;
20381;SDS011;10350;51.280;12.400;2023-03-01T02:37:33;17.17;;;10.02;;
20381;SDS011;10350;51.280;12.400;2023-03-01T02:40:02;17.42;;;9.35;;
20381;SDS011;10350;51.280;12.400;2023-03-01T02:42:33;20.80;;;9.95;;
20381;SDS011;10350;51.280;12.400;2023-03-01T02:45:02;19.05;;;10.55;;
20381;SDS011;10350;51.280;12.400;2023-03-01T02:47:28;25.73;;;10.18;;
20381;SDS011;10350;51.280;12.400;2023-03-01T02:49:54;21.98;;;10.30;;
20381;SDS011;10350;51.280;12.400;2023-03-01T02:57:34;17.45;;;9.45;;
20381;SDS011;10350;51.280;12.400;2023-03-01T03:00:34;25.10;;;10.10;;
20381;SDS011;10350;51.280;12.400;2023-03-01T03:02:53;22.05;;;9.63;;
20381;SDS011;10350;51.280;12.400;2023-03-01T03:05:26;17.95;;;9.77;;
20381;SDS011;10350;51.280;12.400;2023-03-01T03:07:52;17.35;;;9.07;;
20381;SDS011;10350;51.280;12.400;2023-03-01T03:10:19;21.70;;;9.32;;
20381;SDS011;10350;51.280;12.400;2023-03-01T03:12:50;24.80;;;9.60;;
20381;SDS011;10350;51.280;12.400;2023-03-01T03:15:16;18.75;;;9.95;;
20381;SDS011;10350;51.280;12.400;2023-03-01T03:17:42;18.70;;;9.60;;
20381;SDS011;10350;51.280;12.400;2023-03-01T03:20:10;22.83;;;10.25;;
20381;SDS011;10350;51.280;12.400;2023-03-01T03:22:40;20.05;;;9.75;;
20381;SDS011;10350;51.280;12.400;2023-03-01T03:25:07;18.52;;;8.93;;
20381;SDS011;10350;51.280;12.400;2023-03-01T03:27:35;23.42;;;10.05;;
20381;SDS011;10350;51.280;12.400;2023-03-01T03:30:01;15.98;;;9.05;;
20381;SDS011;10350;51.280;12.400;2023-03-01T03:32:27;20.52;;;10.75;;
20381;SDS011;10350;51.280;12.400;2023-03-01T03:34:53;15.85;;;9.48;;
20381;SDS011;10350;51.280;12.400;2023-03-01T03:37:19;21.35;;;9.48;;
20381;SDS011;10350;51.280;12.400;2023-03-01T03:40:03;19.13;;;8.88;;
20381;SDS011;10350;51.280;12.400;2023-03-01T03:42:40;18.45;;;9.38;;
20381;SDS011;10350;51.280;12.400;2023-03-01T03:45:06;19.35;;;9.25;;
20381;SDS011;10350;51.280;12.400;2023-03-01T03:47:32;19.77;;;9.02;;
20381;SDS011;10350;51.280;12.400;2023-03-01T03:49:58;18.73;;;8.73;;
20381;SDS011;10350;51.280;12.400;2023-03-01T03:52:23;18.00;;;9.68;;
20381;SDS011;10350;51.280;12.400;2023-03-01T03:54:49;16.55;;;9.35;;
20381;SDS011;10350;51.280;12.400;2023-03-01T03:57:15;15.70;;;9.00;;
20381;SDS011;10350;51.280;12.400;2023-03-01T03:59:41;21.90;;;8.60;;
20381;SDS011;10350;51.280;12.400;2023-03-01T04:02:07;17.25;;;9.55;;
20381;SDS011;10350;51.280;12.400;2023-03-01T04:04:33;21.00;;;9.27;;
20381;SDS011;10350;51.280;12.400;2023-03-01T04:06:59;18.98;;;9.80;;
20381;SDS011;10350;51.280;12.400;2023-03-01T04:09:25;20.25;;;9.40;;
20381;SDS011;10350;51.280;12.400;2023-03-01T04:11:51;23.08;;;9.57;;
20381;SDS011;10350;51.280;12.400;2023-03-01T04:14:17;15.95;;;8.80;;
20381;SDS011;10350;51.280;12.400;2023-03-01T04:16:43;21.48;;;9.85;;
20381;SDS011;10350;51.280;12.400;2023-03-01T04:19:09;19.27;;;10.15;;
20381;SDS011;10350;51.280;12.400;2023-03-01T04:21:35;20.73;;;9.23;;
20381;SDS011;10350;51.280;12.400;2023-03-01T04:24:01;18.48;;;9.75;;
20381;SDS011;10350;51.280;12.400;2023-03-01T04:26:28;19.77;;;9.13;;
20381;SDS011;10350;51.280;12.400;2023-03-01T04:28:54;19.70;;;10.77;;
20381;SDS011;10350;51.280;12.400;2023-03-01T04:31:20;19.27;;;9.32;;
20381;SDS011;10350;51.280;12.400;2023-03-01T04:36:13;17.98;;;9.77;;
20381;SDS011;10350;51.280;12.400;2023-03-01T04:38:39;17.50;;;9.68;;
20381;SDS011;10350;51.280;12.400;2023-03-01T04:41:06;20.00;;;10.05;;
20381;SDS011;10350;51.280;12.400;2023-03-01T04:43:32;19.40;;;9.38;;
20381;SDS011;10350;51.280;12.400;2023-03-01T04:46:02;19.45;;;10.30;;
20381;SDS011;10350;51.280;12.400;2023-03-01T04:48:29;22.13;;;10.23;;
20381;SDS011;10350;51.280;12.400;2023-03-01T04:50:55;18.40;;;9.05;;
20381;SDS011;10350;51.280;12.400;2023-03-01T04:53:21;21.17;;;9.65;;
20381;SDS011;10350;51.280;12.400;2023-03-01T04:55:47;22.65;;;10.00;;
20381;SDS011;10350;51.280;12.400;2023-03-01T04:58:13;20.15;;;9.60;;
20381;SDS011;10350;51.280;12.400;2023-03-01T05:00:39;18.15;;;9.73;;
20381;SDS011;10350;51.280;12.400;2023-03-01T05:03:05;20.08;;;10.25;;
20381;SDS011;10350;51.280;12.400;2023-03-01T05:05:34;29.75;;;14.02;;
20381;SDS011;10350;51.280;12.400;2023-03-01T05:08:05;24.73;;;11.40;;
20381;SDS011;10350;51.280;12.400;2023-03-01T05:10:32;19.73;;;10.07;;
20381;SDS011;10350;51.280;12.400;2023-03-01T05:15:26;21.75;;;10.55;;
20381;SDS011;10350;51.280;12.400;2023-03-01T05:17:53;22.08;;;11.15;;
20381;SDS011;10350;51.280;12.400;2023-03-01T05:20:19;21.25;;;9.82;;
20381;SDS011;10350;51.280;12.400;2023-03-01T05:22:49;23.50;;;9.77;;
20381;SDS011;10350;51.280;12.400;2023-03-01T05:25:15;22.77;;;11.23;;
20381;SDS011;10350;51.280;12.400;2023-03-01T05:27:41;17.02;;;10.45;;
20381;SDS011;10350;51.280;12.400;2023-03-01T05:30:08;21.40;;;11.20;;
20381;SDS011;10350;51.280;12.400;2023-03-01T05:32:44;22.48;;;10.40;;
20381;SDS011;10350;51.280;12.400;2023-03-01T05:35:11;18.92;;;10.48;;
20381;SDS011;10350;51.280;12.400;2023-03-01T05:37:38;20.17;;;10.13;;
20381;SDS011;10350;51.280;12.400;2023-03-01T05:40:04;23.73;;;10.98;;
20381;SDS011;10350;51.280;12.400;2023-03-01T05:42:30;29.77;;;12.27;;
20381;SDS011;10350;51.280;12.400;2023-03-01T05:44:56;19.40;;;11.35;;
20381;SDS011;10350;51.280;12.400;2023-03-01T05:47:22;22.45;;;10.75;;
20381;SDS011;10350;51.280;12.400;2023-03-01T05:49:48;20.17;;;10.52;;
20381;SDS011;10350;51.280;12.400;2023-03-01T05:52:15;22.63;;;10.82;;
20381;SDS011;10350;51.280;12.400;2023-03-01T05:54:41;18.95;;;10.80;;
20381;SDS011;10350;51.280;12.400;2023-03-01T05:57:07;24.52;;;10.68;;
20381;SDS011;10350;51.280;12.400;2023-03-01T05:59:33;23.23;;;11.90;;
20381;SDS011;10350;51.280;12.400;2023-03-01T06:01:59;24.48;;;11.57;;
20381;SDS011;10350;51.280;12.400;2023-03-01T06:04:25;22.08;;;11.57;;
20381;SDS011;10350;51.280;12.400;2023-03-01T06:06:51;23.90;;;10.57;;
20381;SDS011;10350;51.280;12.400;2023-03-01T06:09:17;21.40;;;10.80;;
20381;SDS011;10350;51.280;12.400;2023-03-01T06:11:43;26.55;;;12.60;;
20381;SDS011;10350;51.280;12.400;2023-03-01T06:14:09;26.02;;;11.18;;
20381;SDS011;10350;51.280;12.400;2023-03-01T06:19:03;23.73;;;10.95;;
20381;SDS011;10350;51.280;12.400;2023-03-01T06:21:29;25.50;;;11.02;;
20381;SDS011;10350;51.280;12.400;2023-03-01T06:23:55;22.58;;;11.27;;
20381;SDS011;10350;51.280;12.400;2023-03-01T06:26:21;24.92;;;11.73;;
20381;SDS011;10350;51.280;12.400;2023-03-01T06:28:47;24.83;;;10.98;;
20381;SDS011;10350;51.280;12.400;2023-03-01T06:31:13;22.02;;;11.43;;
20381;SDS011;10350;51.280;12.400;2023-03-01T06:33:39;30.73;;;11.95;;
20381;SDS011;10350;51.280;12.400;2023-03-01T06:36:05;22.77;;;11.30;;
20381;SDS011;10350;51.280;12.400;2023-03-01T06:38:31;25.90;;;11.40;;
20381;SDS011;10350;51.280;12.400;2023-03-01T06:40:57;30.10;;;12.50;;
20381;SDS011;10350;51.280;12.400;2023-03-01T06:43:23;27.55;;;13.15;;
20381;SDS011;10350;51.280;12.400;2023-03-01T06:45:49;27.23;;;12.52;;
20381;SDS011;10350;51.280;12.400;2023-03-01T06:48:15;25.67;;;12.35;;
20381;SDS011;10350;51.280;12.400;2023-03-01T06:50:41;24.33;;;12.73;;
20381;SDS011;10350;51.280;12.400;2023-03-01T06:53:07;23.80;;;12.43;;
20381;SDS011;10350;51.280;12.400;2023-03-01T06:55:33;28.55;;;12.40;;
20381;SDS011;10350;51.280;12.400;2023-03-01T06:57:59;25.08;;;12.48;;
20381;SDS011;10350;51.280;12.400;2023-03-01T07:00:26;27.35;;;13.48;;
20381;SDS011;10350;51.280;12.400;2023-03-01T07:02:52;25.17;;;12.30;;
20381;SDS011;10350;51.280;12.400;2023-03-01T07:05:18;24.98;;;13.07;;
20381;SDS011;10350;51.280;12.400;2023-03-01T07:07:44;25.02;;;12.52;;
20381;SDS011;10350;51.280;12.400;2023-03-01T07:10:10;25.40;;;13.07;;
20381;SDS011;10350;51.280;12.400;2023-03-01T07:12:36;29.10;;;13.35;;
20381;SDS011;10350;51.280;12.400;2023-03-01T07:15:03;27.58;;;12.85;;
20381;SDS011;10350;51.280;12.400;2023-03-01T07:17:29;31.25;;;13.07;;
20381;SDS011;10350;51.280;12.400;2023-03-01T07:19:55;24.63;;;12.07;;
20381;SDS011;10350;51.280;12.400;2023-03-01T07:22:21;27.35;;;13.02;;
20381;SDS011;10350;51.280;12.400;2023-03-01T07:24:47;23.52;;;12.05;;
20381;SDS011;10350;51.280;12.400;2023-03-01T07:27:13;24.88;;;12.45;;
20381;SDS011;10350;51.280;12.400;2023-03-01T07:29:39;24.65;;;12.35;;
20381;SDS011;10350;51.280;12.400;2023-03-01T07:32:05;25.38;;;12.75;;
20381;SDS011;10350;51.280;12.400;2023-03-01T07:34:32;25.90;;;12.45;;
20381;SDS011;10350;51.280;12.400;2023-03-01T07:36:58;24.13;;;12.75;;
20381;SDS011;10350;51.280;12.400;2023-03-01T07:39:24;23.63;;;11.40;;
20381;SDS011;10350;51.280;12.400;2023-03-01T07:41:50;24.45;;;12.88;;
20381;SDS011;10350;51.280;12.400;2023-03-01T07:44:16;28.00;;;13.60;;
20381;SDS011;10350;51.280;12.400;2023-03-01T07:46:42;25.83;;;12.18;;
20381;SDS011;10350;51.280;12.400;2023-03-01T07:49:08;27.88;;;12.55;;
20381;SDS011;10350;51.280;12.400;2023-03-01T07:51:34;23.75;;;12.43;;
20381;SDS011;10350;51.280;12.400;2023-03-01T07:54:00;29.42;;;13.25;;
20381;SDS011;10350;51.280;12.400;2023-03-01T07:56:26;23.83;;;11.95;;
20381;SDS011;10350;51.280;12.400;2023-03-01T07:58:52;28.75;;;12.45;;
20381;SDS011;10350;51.280;12.400;2023-03-01T08:01:19;24.85;;;12.23;;
20381;SDS011;10350;51.280;12.400;2023-03-01T08:03:45;23.75;;;12.25;;
20381;SDS011;10350;51.280;12.400;2023-03-01T08:06:11;22.92;;;12.35;;
20381;SDS011;10350;51.280;12.400;2023-03-01T08:08:38;23.52;;;12.20;;
20381;SDS011;10350;51.280;12.400;2023-03-01T08:11:04;29.70;;;14.18;;
20381;SDS011;10350;51.280;12.400;2023-03-01T08:13:30;25.35;;;12.40;;
20381;SDS011;10350;51.280;12.400;2023-03-01T08:16:00;29.08;;;12.30;;
20381;SDS011;10350;51.280;12.400;2023-03-01T08:18:27;25.70;;;11.60;;
20381;SDS011;10350;51.280;12.400;2023-03-01T08:20:52;23.02;;;12.63;;
20381;SDS011;10350;51.280;12.400;2023-03-01T08:23:18;23.42;;;13.48;;
20381;SDS011;10350;51.280;12.400;2023-03-01T08:25:44;25.27;;;12.10;;
20381;SDS011;10350;51.280;12.400;2023-03-01T08:28:10;19.83;;;11.90;;
20381;SDS011;10350;51.280;12.400;2023-03-01T08:30:36;25.05;;;13.05;;
20381;SDS011;10350;51.280;12.400;2023-03-01T08:33:02;23.75;;;12.77;;
20381;SDS011;10350;51.280;12.400;2023-03-01T08:35:28;22.00;;;11.70;;
20381;SDS011;10350;51.280;12.400;2023-03-01T08:37:54;21.17;;;11.40;;
20381;SDS011;10350;51.280;12.400;2023-03-01T08:40:20;20.70;;;11.68;;
20381;SDS011;10350;51.280;12.400;2023-03-01T08:42:46;24.75;;;12.43;;
20381;SDS011;10350;51.280;12.400;2023-03-01T08:45:12;22.80;;;11.63;;
20381;SDS011;10350;51.280;12.400;2023-03-01T08:47:42;23.27;;;12.00;;
20381;SDS011;10350;51.280;12.400;2023-03-01T08:50:09;22.33;;;11.55;;
20381;SDS011;10350;51.280;12.400;2023-03-01T08:52:35;21.85;;;12.02;;
20381;SDS011;10350;51.280;12.400;2023-03-01T08:55:01;21.42;;;12.50;;
20381;SDS011;10350;51.280;12.400;2023-03-01T08:57:27;21.45;;;11.68;;
20381;SDS011;10350;51.280;12.400;2023-03-01T08:59:53;27.52;;;12.10;;
20381;SDS011;10350;51.280;12.400;2023-03-01T09:02:21;22.50;;;13.00;;
20381;SDS011;10350;51.280;12.400;2023-03-01T09:04:46;20.42;;;11.73;;
20381;SDS011;10350;51.280;12.400;2023-03-01T09:07:12;20.85;;;11.65;;
20381;SDS011;10350;51.280;12.400;2023-03-01T09:09:38;23.48;;;12.63;;
20381;SDS011;10350;51.280;12.400;2023-03-01T09:12:04;26.40;;;12.02;;
20381;SDS011;10350;51.280;12.400;2023-03-01T09:14:30;20.27;;;11.82;;
20381;SDS011;10350;51.280;12.400;2023-03-01T09:16:56;24.77;;;12.68;;
20381;SDS011;10350;51.280;12.400;2023-03-01T09:19:22;21.58;;;11.55;;
20381;SDS011;10350;51.280;12.400;2023-03-01T09:21:48;23.73;;;12.13;;
20381;SDS011;10350;51.280;12.400;2023-03-01T09:24:18;23.63;;;13.43;;
20381;SDS011;10350;51.280;12.400;2023-03-01T09:26:45;23.63;;;12.60;;
20381;SDS011;10350;51.280;12.400;2023-03-01T09:29:11;21.05;;;11.93;;
20381;SDS011;10350;51.280;12.400;2023-03-01T09:31:37;22.38;;;12.20;;
20381;SDS011;10350;51.280;12.400;2023-03-01T09:34:03;20.80;;;11.30;;
20381;SDS011;10350;51.280;12.400;2023-03-01T09:36:29;24.42;;;12.32;;
20381;SDS011;10350;51.280;12.400;2023-03-01T09:38:57;22.35;;;12.63;;
20381;SDS011;10350;51.280;12.400;2023-03-01T09:41:34;25.35;;;11.93;;
20381;SDS011;10350;51.280;12.400;2023-03-01T09:44:03;21.70;;;12.98;;
20381;SDS011;10350;51.280;12.400;2023-03-01T09:46:37;23.48;;;12.00;;
20381;SDS011;10350;51.280;12.400;2023-03-01T09:49:25;23.08;;;12.10;;
20381;SDS011;10350;51.280;12.400;2023-03-01T09:54:34;23.42;;;12.63;;
20381;SDS011;10350;51.280;12.400;2023-03-01T09:57:13;21.38;;;13.32;;
20381;SDS011;10350;51.280;12.400;2023-03-01T10:02:27;23.48;;;12.02;;
20381;SDS011;10350;51.280;12.400;2023-03-01T10:05:11;19.77;;;12.15;;
20381;SDS011;10350;51.280;12.400;2023-03-01T10:10:28;21.20;;;12.40;;
20381;SDS011;10350;51.280;12.400;2023-03-01T10:12:57;23.10;;;12.77;;
20381;SDS011;10350;51.280;12.400;2023-03-01T10:17:52;21.20;;;12.32;;
20381;SDS011;10350;51.280;12.400;2023-03-01T10:22:46;19.73;;;12.90;;
20381;SDS011;10350;51.280;12.400;2023-03-01T10:25:20;22.67;;;13.95;;
20381;SDS011;10350;51.280;12.400;2023-03-01T10:27:53;26.80;;;13.50;;
20381;SDS011;10350;51.280;12.400;2023-03-01T10:30:29;19.88;;;12.40;;
20381;SDS011;10350;51.280;12.400;2023-03-01T10:32:58;20.58;;;12.35;;
20381;SDS011;10350;51.280;12.400;2023-03-01T10:35:25;23.23;;;12.70;;
20381;SDS011;10350;51.280;12.400;2023-03-01T10:38:08;23.23;;;12.45;;
20381;SDS011;10350;51.280;12.400;2023-03-01T10:40:35;21.10;;;12.57;;
20381;SDS011;10350;51.280;12.400;2023-03-01T10:43:02;20.80;;;13.00;;
20381;SDS011;10350;51.280;12.400;2023-03-01T10:48:14;21.85;;;13.13;;
20381;SDS011;10350;51.280;12.400;2023-03-01T10:50:48;23.95;;;13.63;;
20381;SDS011;10350;51.280;12.400;2023-03-01T10:53:25;19.85;;;11.85;;
20381;SDS011;10350;51.280;12.400;2023-03-01T10:58:23;19.27;;;12.38;;
20381;SDS011;10350;51.280;12.400;2023-03-01T11:00:50;22.40;;;12.90;;
20381;SDS011;10350;51.280;12.400;2023-03-01T11:08:28;23.48;;;12.57;;
20381;SDS011;10350;51.280;12.400;2023-03-01T11:11:03;24.67;;;13.18;;
20381;SDS011;10350;51.280;12.400;2023-03-01T11:13:29;19.27;;;12.00;;
20381;SDS011;10350;51.280;12.400;2023-03-01T11:15:59;16.98;;;11.30;;
20381;SDS011;10350;51.280;12.400;2023-03-01T11:18:25;18.83;;;12.18;;
20381;SDS011;10350;51.280;12.400;2023-03-01T11:20:52;20.48;;;10.70;;
20381;SDS011;10350;51.280;12.400;2023-03-01T11:23:19;15.55;;;9.95;;
20381;SDS011;10350;51.280;12.400;2023-03-01T11:25:50;20.50;;;10.93;;
20381;SDS011;10350;51.280;12.400;2023-03-01T11:28:17;17.75;;;10.75;;
20381;SDS011;10350;51.280;12.400;2023-03-01T11:30:49;22.90;;;11.35;;
20381;SDS011;10350;51.280;12.400;2023-03-01T11:33:18;20.52;;;11.75;;
20381;SDS011;10350;51.280;12.400;2023-03-01T11:35:49;21.88;;;12.35;;
20381;SDS011;10350;51.280;12.400;2023-03-01T11:38:18;20.15;;;12.20;;
20381;SDS011;10350;51.280;12.400;2023-03-01T11:40:52;22.05;;;11.50;;
20381;SDS011;10350;51.280;12.400;2023-03-01T11:43:33;24.77;;;13.15;;
20381;SDS011;10350;51.280;12.400;2023-03-01T11:46:08;24.52;;;13.48;;
20381;SDS011;10350;51.280;12.400;2023-03-01T11:48:56;25.27;;;14.35;;
20381;SDS011;10350;51.280;12.400;2023-03-01T11:51:32;24.35;;;14.88;;
20381;SDS011;10350;51.280;12.400;2023-03-01T11:54:06;26.70;;;13.20;;
20381;SDS011;10350;51.280;12.400;2023-03-01T11:56:43;26.13;;;15.07;;
20381;SDS011;10350;51.280;12.400;2023-03-01T11:59:24;19.73;;;13.15;;
20381;SDS011;10350;51.280;12.400;2023-03-01T12:02:02;27.65;;;14.88;;
20381;SDS011;10350;51.280;12.400;2023-03-01T12:12:44;28.65;;;14.93;;
20381;SDS011;10350;51.280;12.400;2023-03-01T12:26:24;25.10;;;14.20;;
20381;SDS011;10350;51.280;12.400;2023-03-01T12:37:19;24.15;;;13.63;;
20381;SDS011;10350;51.280;12.400;2023-03-01T12:39:51;22.50;;;13.02;;
20381;SDS011;10350;51.280;12.400;2023-03-01T12:50:24;16.10;;;10.13;;
20381;SDS011;10350;51.280;12.400;2023-03-01T12:52:51;19.35;;;11.68;;
20381;SDS011;10350;51.280;12.400;2023-03-01T12:55:33;19.30;;;11.40;;
20381;SDS011;10350;51.280;12.400;2023-03-01T12:58:02;20.27;;;11.18;;
20381;SDS011;10350;51.280;12.400;2023-03-01T13:00:45;19.98;;;11.50;;
20381;SDS011;10350;51.280;12.400;2023-03-01T13:08:36;19.42;;;11.68;;
20381;SDS011;10350;51.280;12.400;2023-03-01T13:11:05;17.90;;;11.30;;
20381;SDS011;10350;51.280;12.400;2023-03-01T13:13:32;16.88;;;11.18;;
20381;SDS011;10350;51.280;12.400;2023-03-01T13:16:20;19.60;;;11.77;;
20381;SDS011;10350;51.280;12.400;2023-03-01T13:18:44;20.75;;;11.40;;
20381;SDS011;10350;51.280;12.400;2023-03-01T13:21:11;24.60;;;11.80;;
20381;SDS011;10350;51.280;12.400;2023-03-01T13:23:37;21.63;;;11.40;;
20381;SDS011;10350;51.280;12.400;2023-03-01T13:26:11;19.83;;;11.68;;
20381;SDS011;10350;51.280;12.400;2023-03-01T13:28:39;20.77;;;12.02;;
20381;SDS011;10350;51.280;12.400;2023-03-01T13:31:07;17.65;;;10.77;;
20381;SDS011;10350;51.280;12.400;2023-03-01T13:33:39;19.30;;;11.73;;
20381;SDS011;10350;51.280;12.400;2023-03-01T13:36:05;18.45;;;11.35;;
20381;SDS011;10350;51.280;12.400;2023-03-01T13:41:08;21.10;;;11.35;;
20381;SDS011;10350;51.280;12.400;2023-03-01T13:43:34;18.50;;;10.63;;
20381;SDS011;10350;51.280;12.400;2023-03-01T13:46:02;21.17;;;11.40;;
20381;SDS011;10350;51.280;12.400;2023-03-01T13:48:33;20.10;;;11.43;;
20381;SDS011;10350;51.280;12.400;2023-03-01T13:51:00;18.52;;;10.80;;
20381;SDS011;10350;51.280;12.400;2023-03-01T13:53:29;18.25;;;11.27;;
20381;SDS011;10350;51.280;12.400;2023-03-01T13:56:15;21.77;;;11.70;;
20381;SDS011;10350;51.280;12.400;2023-03-01T13:58:49;18.25;;;10.77;;
20381;SDS011;10350;51.280;12.400;2023-03-01T14:01:26;15.88;;;10.95;;
20381;SDS011;10350;51.280;12.400;2023-03-01T14:03:53;20.40;;;10.97;;
20381;SDS011;10350;51.280;12.400;2023-03-01T14:06:24;17.35;;;10.32;;
20381;SDS011;10350;51.280;12.400;2023-03-01T14:08:51;20.50;;;11.63;;
20381;SDS011;10350;51.280;12.400;2023-03-01T14:11:24;16.90;;;9.95;;
20381;SDS011;10350;51.280;12.400;2023-03-01T14:13:58;21.58;;;10.35;;
20381;SDS011;10350;51.280;12.400;2023-03-01T14:16:33;22.17;;;11.07;;
20381;SDS011;10350;51.280;12.400;2023-03-01T14:19:18;19.77;;;10.32;;
20381;SDS011;10350;51.280;12.400;2023-03-01T14:21:50;17.33;;;10.43;;
20381;SDS011;10350;51.280;12.400;2023-03-01T14:24:25;16.95;;;10.65;;
20381;SDS011;10350;51.280;12.400;2023-03-01T14:26:52;19.55;;;10.85;;
20381;SDS011;10350;51.280;12.400;2023-03-01T14:29:29;16.20;;;10.10;;
20381;SDS011;10350;51.280;12.400;2023-03-01T14:32:08;16.35;;;9.20;;
20381;SDS011;10350;51.280;12.400;2023-03-01T14:34:34;15.50;;;9.40;;
20381;SDS011;10350;51.280;12.400;2023-03-01T14:39:41;16.95;;;10.63;;
20381;SDS011;10350;51.280;12.400;2023-03-01T14:42:07;14.25;;;9.48;;
20381;SDS011;10350;51.280;12.400;2023-03-01T14:44:33;16.70;;;10.02;;
20381;SDS011;10350;51.280;12.400;2023-03-01T14:47:02;14.90;;;10.38;;
20381;SDS011;10350;51.280;12.400;2023-03-01T14:49:29;20.55;;;9.77;;
20381;SDS011;10350;51.280;12.400;2023-03-01T14:52:06;21.38;;;10.70;;
20381;SDS011;10350;51.280;12.400;2023-03-01T14:54:40;17.55;;;9.55;;
20381;SDS011;10350;51.280;12.400;2023-03-01T14:57:12;16.88;;;9.48;;
20381;SDS011;10350;51.280;12.400;2023-03-01T14:59:40;18.92;;;9.38;;
20381;SDS011;10350;51.280;12.400;2023-03-01T15:02:12;17.52;;;10.80;;
20381;SDS011;10350;51.280;12.400;2023-03-01T15:04:41;15.63;;;9.68;;
20381;SDS011;10350;51.280;12.400;2023-03-01T15:07:09;17.50;;;10.18;;
20381;SDS011;10350;51.280;12.400;2023-03-01T15:09:39;17.50;;;9.55;;
20381;SDS011;10350;51.280;12.400;2023-03-01T15:14:50;17.67;;;10.20;;
20381;SDS011;10350;51.280;12.400;2023-03-01T15:17:36;16.55;;;9.80;;
20381;SDS011;10350;51.280;12.400;2023-03-01T15:20:13;13.80;;;9.30;;
20381;SDS011;10350;51.280;12.400;2023-03-01T15:25:13;15.63;;;9.73;;
20381;SDS011;10350;51.280;12.400;2023-03-01T15:27:39;15.90;;;8.85;;
20381;SDS011;10350;51.280;12.400;2023-03-01T15:30:21;16.30;;;9.55;;
20381;SDS011;10350;51.280;12.400;2023-03-01T15:32:48;15.80;;;8.43;;
20381;SDS011;10350;51.280;12.400;2023-03-01T15:35:38;15.63;;;8.93;;
20381;SDS011;10350;51.280;12.400;2023-03-01T15:38:23;12.80;;;8.60;;
20381;SDS011;10350;51.280;12.400;2023-03-01T15:40:49;15.63;;;8.65;;
20381;SDS011;10350;51.280;12.400;2023-03-01T15:46:00;12.70;;;8.18;;
20381;SDS011;10350;51.280;12.400;2023-03-01T15:48:26;16.60;;;8.15;;
20381;SDS011;10350;51.280;12.400;2023-03-01T15:50:56;11.30;;;7.80;;
20381;SDS011;10350;51.280;12.400;2023-03-01T15:53:23;12.80;;;8.05;;
20381;SDS011;10350;51.280;12.400;2023-03-01T15:55:49;15.95;;;8.95;;
20381;SDS011;10350;51.280;12.400;2023-03-01T16:00:41;13.52;;;8.27;;
20381;SDS011;10350;51.280;12.400;2023-03-01T16:03:08;13.43;;;8.57;;
20381;SDS011;10350;51.280;12.400;2023-03-01T16:05:36;16.48;;;8.88;;